Time;durP1;ratioP1;P1;durP2;ratioP2;P2;SDS_P1;SDS_P2;PMS_P1;PMS_P2;Temp;Humidity;BMP_temperature;BMP_pressure;BME280_temperature;BME280_humidity;BME280_pressure;Samples;Min_cycle;Max_cycle;Signal;HPM_P1;HPM_P2
2021/08/01 00:00:04;;;;;;;7.30;3.65;;;;;;;;;;5040026;28;20124;-79
2021/08/01 00:02:50;;;;;;;8.45;4.32;;;;;;;;;;5035245;28;20056;-79
2021/08/01 00:05:35;;;;;;;11.27;4.10;;;;;;;;;;5035976;28;20751;-79
2021/08/01 00:08:21;;;;;;;10.98;5.00;;;;;;;;;;5044922;28;20041;-79
2021/08/01 00:11:06;;;;;;;9.13;3.65;;;;;;;;;;5037089;28;20018;-79
2021/08/01 00:13:52;;;;;;;6.72;3.55;;;;;;;;;;5039110;28;20160;-79
2021/08/01 00:16:37;;;;;;;10.02;3.90;;;;;;;;;;5038591;28;20022;-79
2021/08/01 00:19:23;;;;;;;8.23;3.50;;;;;;;;;;5042482;28;20033;-79
2021/08/01 00:22:08;;;;;;;10.98;4.07;;;;;;;;;;5029468;28;20064;-78
2021/08/01 00:24:54;;;;;;;8.90;3.65;;;;;;;;;;5041392;28;20040;-79
2021/08/01 00:27:40;;;;;;;9.13;3.72;;;;;;;;;;5046422;28;20029;-79
2021/08/01 00:30:25;;;;;;;7.82;3.58;;;;;;;;;;5038791;28;20388;-79
2021/08/01 00:33:11;;;;;;;7.90;3.75;;;;;;;;;;5042093;28;20033;-79
2021/08/01 00:35:56;;;;;;;10.35;4.75;;;;;;;;;;5047178;28;20060;-79
2021/08/01 00:38:42;;;;;;;10.05;3.85;;;;;;;;;;5032434;28;20082;-78
2021/08/01 00:41:27;;;;;;;9.90;3.75;;;;;;;;;;5037611;28;20052;-78
2021/08/01 00:44:13;;;;;;;6.80;3.38;;;;;;;;;;5037724;28;20439;-78
2021/08/01 00:46:58;;;;;;;8.73;3.25;;;;;;;;;;5034323;28;20029;-79
2021/08/01 00:49:44;;;;;;;6.90;3.80;;;;;;;;;;5045461;28;20035;-79
2021/08/01 00:52:30;;;;;;;9.80;3.75;;;;;;;;;;5038253;28;20121;-79
2021/08/01 00:55:15;;;;;;;5.85;3.65;;;;;;;;;;5038910;28;20506;-78
2021/08/01 00:58:01;;;;;;;6.53;3.83;;;;;;;;;;5032376;28;20108;-79
2021/08/01 01:03:53;;;;;;;9.10;4.15;;;;;;;;;;5038643;28;20484;-78
2021/08/01 01:06:54;;;;;;;8.25;4.35;;;;;;;;;;5038059;28;20033;-79
2021/08/01 01:10:01;;;;;;;8.63;4.03;;;;;;;;;;5032389;28;20459;-79
2021/08/01 01:12:49;;;;;;;8.85;4.22;;;;;;;;;;5037165;28;20117;-79
2021/08/01 01:15:36;;;;;;;7.78;4.65;;;;;;;;;;5034501;28;20065;-78
2021/08/01 01:18:24;;;;;;;9.18;4.80;;;;;;;;;;5031338;28;20095;-79
2021/08/01 01:21:10;;;;;;;11.23;5.18;;;;;;;;;;5037247;28;20519;-78
2021/08/01 01:24:00;;;;;;;6.32;4.15;;;;;;;;;;5044702;28;20066;-79
2021/08/01 01:26:52;;;;;;;6.07;3.53;;;;;;;;;;5036471;28;20430;-79
2021/08/01 01:29:37;;;;;;;5.20;3.38;;;;;;;;;;5041342;28;20419;-79
2021/08/01 01:32:30;;;;;;;5.88;3.70;;;;;;;;;;5041542;28;20039;-79
2021/08/01 01:35:18;;;;;;;6.68;3.95;;;;;;;;;;5045981;28;20376;-78
2021/08/01 01:38:04;;;;;;;5.78;3.78;;;;;;;;;;5037512;28;20053;-78
2021/08/01 01:40:53;;;;;;;6.70;3.58;;;;;;;;;;5002652;28;1047240;-78
2021/08/01 01:43:39;;;;;;;6.38;3.95;;;;;;;;;;5044947;28;20032;-78
2021/08/01 01:46:25;;;;;;;5.97;3.50;;;;;;;;;;5038492;28;20030;-78
2021/08/01 01:49:11;;;;;;;6.85;3.60;;;;;;;;;;5039083;28;20480;-78
2021/08/01 01:51:57;;;;;;;10.48;4.30;;;;;;;;;;5042213;28;20021;-80
2021/08/01 01:54:43;;;;;;;7.57;4.10;;;;;;;;;;5040500;28;20028;-78
2021/08/01 01:57:29;;;;;;;9.70;4.00;;;;;;;;;;5036397;28;20539;-77
2021/08/01 02:00:15;;;;;;;12.57;4.00;;;;;;;;;;5020455;28;20033;-78
2021/08/01 02:03:01;;;;;;;8.77;3.80;;;;;;;;;;5038231;28;20445;-78
2021/08/01 02:05:46;;;;;;;7.95;3.70;;;;;;;;;;5040954;28;20032;-79
2021/08/01 02:08:35;;;;;;;10.15;3.97;;;;;;;;;;5032547;28;20033;-79
2021/08/01 02:11:22;;;;;;;8.40;4.05;;;;;;;;;;5039297;28;20029;-79
2021/08/01 02:14:31;;;;;;;10.38;4.13;;;;;;;;;;5032763;28;20124;-79
2021/08/01 02:17:19;;;;;;;10.68;4.85;;;;;;;;;;5040572;28;20025;-78
2021/08/01 02:20:07;;;;;;;8.18;4.05;;;;;;;;;;5040107;28;20029;-79
2021/08/01 02:22:53;;;;;;;9.25;4.55;;;;;;;;;;5030552;28;20404;-78
2021/08/01 02:25:39;;;;;;;7.55;4.63;;;;;;;;;;5040380;28;20461;-79
2021/08/01 02:28:27;;;;;;;7.22;3.90;;;;;;;;;;5034031;28;20112;-79
2021/08/01 02:31:13;;;;;;;8.30;5.07;;;;;;;;;;5040578;28;20035;-79
2021/08/01 02:33:59;;;;;;;10.30;4.55;;;;;;;;;;5036007;28;20156;-79
2021/08/01 02:36:44;;;;;;;8.00;4.50;;;;;;;;;;5045012;28;20373;-78
2021/08/01 02:39:32;;;;;;;10.15;4.80;;;;;;;;;;5043746;28;20036;-79
2021/08/01 02:42:18;;;;;;;11.65;4.93;;;;;;;;;;5031914;28;20102;-79
2021/08/01 02:45:04;;;;;;;8.27;4.47;;;;;;;;;;5040588;28;20038;-79
2021/08/01 02:47:50;;;;;;;8.85;4.15;;;;;;;;;;5035949;28;20139;-78
2021/08/01 02:50:37;;;;;;;8.30;4.07;;;;;;;;;;5035185;28;20108;-78
2021/08/01 02:53:24;;;;;;;7.97;4.22;;;;;;;;;;5039279;28;20075;-78
2021/08/01 02:56:09;;;;;;;6.82;4.22;;;;;;;;;;5036030;28;20114;-78
2021/08/01 02:58:56;;;;;;;6.63;4.22;;;;;;;;;;5040079;28;20112;-78
2021/08/01 03:01:42;;;;;;;6.97;4.50;;;;;;;;;;5037937;28;20025;-78
2021/08/01 03:04:28;;;;;;;11.05;4.78;;;;;;;;;;5041311;28;20070;-79
2021/08/01 03:07:13;;;;;;;8.13;4.78;;;;;;;;;;5033658;28;20087;-79
2021/08/01 03:09:59;;;;;;;9.18;4.35;;;;;;;;;;5036891;28;20365;-79
2021/08/01 03:12:45;;;;;;;6.40;4.60;;;;;;;;;;5042317;28;20035;-80
2021/08/01 03:15:31;;;;;;;10.98;4.53;;;;;;;;;;5042897;28;20024;-78
2021/08/01 03:18:16;;;;;;;9.02;4.10;;;;;;;;;;5028602;28;20021;-78
2021/08/01 03:21:02;;;;;;;8.18;4.45;;;;;;;;;;5036621;28;20630;-79
2021/08/01 03:23:48;;;;;;;7.85;3.83;;;;;;;;;;5041296;28;20021;-79
2021/08/01 03:26:33;;;;;;;8.63;4.97;;;;;;;;;;5030799;28;20021;-79
2021/08/01 03:29:19;;;;;;;9.43;3.97;;;;;;;;;;5035241;28;20164;-78
2021/08/01 03:32:04;;;;;;;7.70;4.60;;;;;;;;;;5041843;28;20025;-78
2021/08/01 03:34:50;;;;;;;7.97;3.92;;;;;;;;;;5041836;28;20025;-78
2021/08/01 03:37:35;;;;;;;6.78;3.95;;;;;;;;;;5044769;28;20047;-78
2021/08/01 03:40:21;;;;;;;9.63;4.60;;;;;;;;;;5043934;28;20108;-78
2021/08/01 03:43:07;;;;;;;6.20;4.20;;;;;;;;;;5033103;28;20051;-78
2021/08/01 03:45:52;;;;;;;8.80;4.60;;;;;;;;;;5033943;28;20484;-78
2021/08/01 03:48:38;;;;;;;6.78;4.35;;;;;;;;;;5042297;28;20086;-78
2021/08/01 03:51:23;;;;;;;8.65;4.88;;;;;;;;;;5045951;28;20021;-77
2021/08/01 03:54:09;;;;;;;7.75;4.72;;;;;;;;;;5043381;28;20025;-79
2021/08/01 03:56:54;;;;;;;9.32;5.75;;;;;;;;;;5040259;28;20503;-78
2021/08/01 03:59:40;;;;;;;9.57;4.47;;;;;;;;;;5044214;28;20151;-80
2021/08/01 04:02:25;;;;;;;7.53;4.68;;;;;;;;;;5028738;28;20033;-79
2021/08/01 04:05:11;;;;;;;9.57;5.00;;;;;;;;;;5023431;28;20036;-78
2021/08/01 04:07:56;;;;;;;7.45;3.67;;;;;;;;;;5040576;28;20113;-79
2021/08/01 04:10:42;;;;;;;7.53;4.63;;;;;;;;;;5043895;28;20036;-79
2021/08/01 04:13:27;;;;;;;8.70;4.13;;;;;;;;;;5033581;28;20021;-79
2021/08/01 04:16:13;;;;;;;8.45;4.60;;;;;;;;;;5033816;28;20425;-79
2021/08/01 04:18:58;;;;;;;11.82;5.25;;;;;;;;;;5041203;28;20079;-77
2021/08/01 04:21:44;;;;;;;9.82;5.05;;;;;;;;;;5034250;28;20025;-78
2021/08/01 04:24:30;;;;;;;6.85;4.13;;;;;;;;;;5037730;28;20079;-78
2021/08/01 04:27:15;;;;;;;7.50;4.20;;;;;;;;;;5033272;28;20033;-79
2021/08/01 04:30:01;;;;;;;6.72;4.40;;;;;;;;;;5039205;28;20021;-78
2021/08/01 04:32:47;;;;;;;7.70;4.35;;;;;;;;;;5046932;28;20020;-79
2021/08/01 04:35:33;;;;;;;6.55;4.13;;;;;;;;;;5046857;28;20032;-78
2021/08/01 04:38:18;;;;;;;6.43;4.07;;;;;;;;;;5050265;28;20031;-79
2021/08/01 04:41:04;;;;;;;6.93;4.10;;;;;;;;;;5036538;28;20499;-79
2021/08/01 04:43:49;;;;;;;10.05;4.88;;;;;;;;;;5031721;28;20040;-78
2021/08/01 04:46:35;;;;;;;10.27;4.43;;;;;;;;;;5039088;28;20040;-79
2021/08/01 04:49:20;;;;;;;9.25;4.95;;;;;;;;;;5045935;28;20029;-78
2021/08/01 04:52:06;;;;;;;6.13;3.95;;;;;;;;;;5033741;28;20032;-79
2021/08/01 04:54:52;;;;;;;7.28;4.20;;;;;;;;;;5050564;28;20025;-78
2021/08/01 04:57:37;;;;;;;7.72;4.28;;;;;;;;;;5039441;28;20084;-79
2021/08/01 05:00:23;;;;;;;6.38;4.20;;;;;;;;;;5039575;28;20025;-78
2021/08/01 05:03:08;;;;;;;9.40;4.25;;;;;;;;;;5044475;28;20029;-78
2021/08/01 05:05:54;;;;;;;10.80;4.60;;;;;;;;;;5039155;28;20158;-79
2021/08/01 05:08:39;;;;;;;8.18;5.45;;;;;;;;;;5049093;28;20040;-79
2021/08/01 05:11:25;;;;;;;5.45;3.45;;;;;;;;;;5040414;28;20021;-79
2021/08/01 05:14:10;;;;;;;7.55;4.07;;;;;;;;;;5038130;28;20041;-78
2021/08/01 05:16:56;;;;;;;8.90;4.32;;;;;;;;;;5041262;28;20146;-78
2021/08/01 05:19:42;;;;;;;6.50;3.30;;;;;;;;;;5036041;28;20041;-78
2021/08/01 05:22:27;;;;;;;7.72;3.30;;;;;;;;;;5040737;28;20025;-78
2021/08/01 05:25:13;;;;;;;6.45;4.07;;;;;;;;;;5036498;28;20044;-78
2021/08/01 05:27:59;;;;;;;4.88;3.38;;;;;;;;;;5047829;28;20044;-79
2021/08/01 05:30:44;;;;;;;6.43;4.07;;;;;;;;;;5039889;28;20028;-79
2021/08/01 05:33:30;;;;;;;7.25;3.88;;;;;;;;;;5034699;28;20155;-78
2021/08/01 05:36:18;;;;;;;8.65;4.32;;;;;;;;;;5039122;28;20033;-79
2021/08/01 05:39:03;;;;;;;8.18;4.28;;;;;;;;;;5047228;28;20069;-79
2021/08/01 05:41:49;;;;;;;10.27;4.55;;;;;;;;;;5037071;28;21299;-79
2021/08/01 05:44:34;;;;;;;6.13;3.60;;;;;;;;;;5050315;28;20416;-79
2021/08/01 05:47:20;;;;;;;7.40;4.32;;;;;;;;;;5043301;28;20026;-78
2021/08/01 05:50:06;;;;;;;6.78;4.22;;;;;;;;;;5051702;28;20029;-78
2021/08/01 05:52:51;;;;;;;6.57;4.03;;;;;;;;;;5046709;28;20053;-78
2021/08/01 05:55:37;;;;;;;5.90;4.10;;;;;;;;;;5037949;28;20021;-78
2021/08/01 05:58:22;;;;;;;6.30;3.47;;;;;;;;;;5037451;28;20024;-78
2021/08/01 06:01:12;;;;;;;6.07;3.47;;;;;;;;;;5046872;28;20051;-77
2021/08/01 06:03:57;;;;;;;3.97;3.10;;;;;;;;;;5038233;28;20567;-78
2021/08/01 06:06:43;;;;;;;4.88;3.38;;;;;;;;;;5038469;28;20104;-78
2021/08/01 06:09:28;;;;;;;6.32;3.80;;;;;;;;;;5032194;28;20028;-78
2021/08/01 06:12:14;;;;;;;6.35;3.50;;;;;;;;;;5035983;28;20075;-79
2021/08/01 06:15:00;;;;;;;6.30;3.50;;;;;;;;;;5040456;28;20056;-79
2021/08/01 06:17:45;;;;;;;7.15;4.07;;;;;;;;;;5036222;28;20028;-79
2021/08/01 06:20:31;;;;;;;4.53;3.17;;;;;;;;;;5033519;28;20033;-81
2021/08/01 06:23:16;;;;;;;5.88;3.60;;;;;;;;;;5036259;28;20029;-79
2021/08/01 06:26:02;;;;;;;5.72;3.60;;;;;;;;;;5035644;28;20114;-78
2021/08/01 06:28:48;;;;;;;7.10;4.05;;;;;;;;;;5038662;28;20036;-78
2021/08/01 06:31:34;;;;;;;6.95;4.05;;;;;;;;;;5041503;28;20021;-78
2021/08/01 06:34:20;;;;;;;8.00;4.68;;;;;;;;;;5036156;28;20026;-77
2021/08/01 06:37:05;;;;;;;7.40;4.07;;;;;;;;;;5042690;28;20378;-77
2021/08/01 06:39:51;;;;;;;9.00;4.40;;;;;;;;;;5044111;28;20051;-78
2021/08/01 06:42:36;;;;;;;8.20;4.32;;;;;;;;;;5034928;28;20049;-77
2021/08/01 06:45:22;;;;;;;7.38;4.00;;;;;;;;;;5032933;28;20116;-78
2021/08/01 06:48:08;;;;;;;6.53;4.35;;;;;;;;;;5031596;28;20033;-78
2021/08/01 06:50:54;;;;;;;7.57;3.92;;;;;;;;;;5042073;28;20543;-78
2021/08/01 06:53:39;;;;;;;5.65;3.58;;;;;;;;;;5035904;28;20431;-78
2021/08/01 06:56:25;;;;;;;7.47;3.97;;;;;;;;;;5043201;28;20448;-78
2021/08/01 06:59:10;;;;;;;8.35;4.32;;;;;;;;;;5040265;28;20266;-79
2021/08/01 07:01:56;;;;;;;8.63;4.20;;;;;;;;;;5036405;28;20122;-78
2021/08/01 07:04:41;;;;;;;8.63;4.40;;;;;;;;;;5039928;28;20418;-79
2021/08/01 07:07:27;;;;;;;12.63;4.40;;;;;;;;;;5048694;28;20048;-79
2021/08/01 07:10:13;;;;;;;5.55;3.90;;;;;;;;;;5044133;28;20531;-79
2021/08/01 07:13:05;;;;;;;6.55;4.05;;;;;;;;;;5042388;28;20029;-79
2021/08/01 07:15:51;;;;;;;6.60;3.92;;;;;;;;;;5044817;28;20024;-78
2021/08/01 07:18:37;;;;;;;11.32;5.35;;;;;;;;;;5036585;28;20021;-78
2021/08/01 07:21:22;;;;;;;8.40;5.82;;;;;;;;;;5046680;28;20027;-79
2021/08/01 07:24:08;;;;;;;6.68;3.83;;;;;;;;;;5044420;28;20099;-79
2021/08/01 07:26:55;;;;;;;7.03;4.18;;;;;;;;;;5045635;28;20047;-79
2021/08/01 07:29:41;;;;;;;7.88;4.68;;;;;;;;;;5042873;28;20438;-79
2021/08/01 07:32:26;;;;;;;10.35;4.55;;;;;;;;;;5043069;28;20638;-79
2021/08/01 07:35:12;;;;;;;5.47;3.40;;;;;;;;;;5047455;28;20112;-79
2021/08/01 07:37:58;;;;;;;8.70;4.43;;;;;;;;;;5042651;28;20025;-79
2021/08/01 07:40:43;;;;;;;6.47;3.65;;;;;;;;;;5038429;28;20403;-78
2021/08/01 07:43:29;;;;;;;5.90;4.28;;;;;;;;;;5042534;28;20063;-78
2021/08/01 07:46:14;;;;;;;8.70;4.50;;;;;;;;;;5046803;28;20025;-79
2021/08/01 07:49:00;;;;;;;9.65;4.60;;;;;;;;;;5032229;28;20026;-80
2021/08/01 07:51:45;;;;;;;6.45;4.10;;;;;;;;;;5041131;28;20017;-80
2021/08/01 07:54:31;;;;;;;8.18;4.43;;;;;;;;;;5026390;28;20040;-79
2021/08/01 07:57:22;;;;;;;14.50;9.82;;;;;;;;;;5039955;28;20017;-79
2021/08/01 08:00:08;;;;;;;6.43;4.20;;;;;;;;;;5044840;28;20021;-80
2021/08/01 08:02:54;;;;;;;4.75;4.10;;;;;;;;;;5045432;28;20051;-79
2021/08/01 08:05:39;;;;;;;7.22;4.60;;;;;;;;;;5046586;28;20036;-79
2021/08/01 08:08:25;;;;;;;7.32;5.10;;;;;;;;;;5042459;28;20026;-79
2021/08/01 08:11:11;;;;;;;9.90;4.78;;;;;;;;;;5032244;28;20040;-79
2021/08/01 08:13:59;;;;;;;6.13;3.95;;;;;;;;;;5039600;28;20640;-78
2021/08/01 08:16:45;;;;;;;7.40;4.10;;;;;;;;;;5039108;28;20116;-79
2021/08/01 08:19:30;;;;;;;5.97;4.40;;;;;;;;;;5035182;28;20526;-79
2021/08/01 08:54:17;;;;;;;7.10;3.85;;;;;;;;;;5298739;23;20533;-76
2021/08/01 08:57:06;;;;;;;5.47;3.47;;;;;;;;;;4954252;28;20423;-76
2021/08/01 08:59:51;;;;;;;;;;;;;;;;;;4952836;28;20098;-76
2021/08/01 09:02:38;;;;;;;36.38;29.58;;;;;;;;;;4953035;28;19921;-76
2021/08/01 09:05:23;;;;;;;17.33;13.63;;;;;;;;;;4944688;28;20038;-76
2021/08/01 09:08:10;;;;;;;9.05;5.25;;;;;;;;;;4953895;28;20074;-76
2021/08/01 09:10:55;;;;;;;6.03;3.67;;;;;;;;;;4949410;28;20046;-76
2021/08/01 09:13:45;;;;;;;6.93;3.63;;;;;;;;;;4944609;28;20031;-77
2021/08/01 09:16:41;;;;;;;10.70;4.22;;;;;;;;;;4951410;29;20027;-77
2021/08/01 09:19:31;;;;;;;10.82;4.32;;;;;;;;;;4954834;28;20038;-78
2021/08/01 09:22:16;;;;;;;5.38;3.47;;;;;;;;;;4951357;29;20504;-79
2021/08/01 09:25:14;;;;;;;10.52;4.10;;;;;;;;;;4944333;28;20062;-77
2021/08/01 09:28:11;;;;;;;6.85;3.90;;;;;;;;;;4950540;28;20027;-76
2021/08/01 09:31:19;;;;;;;8.93;4.38;;;;;;;;;;4952549;28;20027;-77
2021/08/01 09:34:25;;;;;;;8.27;4.05;;;;;;;;;;4950960;28;20048;-77
2021/08/01 09:37:11;;;;;;;8.07;3.42;;;;;;;;;;4952080;29;20035;-79
2021/08/01 09:40:07;;;;;;;8.32;3.92;;;;;;;;;;4949323;28;20027;-76
2021/08/01 09:42:52;;;;;;;5.97;3.25;;;;;;;;;;4952438;28;20031;-76
2021/08/01 09:45:39;;;;;;;5.10;3.00;;;;;;;;;;4950036;28;20110;-76
2021/08/01 09:48:24;;;;;;;13.57;9.00;;;;;;;;;;4953633;28;20019;-77
2021/08/01 09:51:10;;;;;;;9.43;6.78;;;;;;;;;;4955190;28;20114;-77
2021/08/01 09:53:57;;;;;;;6.07;3.42;;;;;;;;;;4970901;28;20098;-75
2021/08/01 09:56:51;;;;;;;6.22;3.53;;;;;;;;;;4966584;28;20027;-76
2021/08/01 09:59:37;;;;;;;4.88;3.45;;;;;;;;;;4970962;28;20019;-76
2021/08/01 10:02:34;;;;;;;5.00;3.17;;;;;;;;;;4972479;28;20041;-76
2021/08/01 10:05:21;;;;;;;4.22;2.97;;;;;;;;;;4970399;28;20113;-76
2021/08/01 10:08:07;;;;;;;6.25;4.10;;;;;;;;;;4973755;28;20030;-76
2021/08/01 10:11:06;;;;;;;6.47;3.70;;;;;;;;;;4968815;28;20429;-76
2021/08/01 10:13:53;;;;;;;5.70;3.90;;;;;;;;;;4965294;28;20026;-76
2021/08/01 10:16:38;;;;;;;5.45;3.72;;;;;;;;;;4954213;28;20473;-75
2021/08/01 10:19:24;;;;;;;5.05;3.70;;;;;;;;;;4967978;28;20034;-76
2021/08/01 10:21:50;;;;;;;5.80;4.23;;;;;;;;;;4965587;28;20019;-76
2021/08/01 10:24:16;;;;;;;6.22;3.75;;;;;;;;;;4968351;28;20023;-75
2021/08/01 10:26:47;;;;;;;4.95;3.10;;;;;;;;;;4966905;28;20078;-76
2021/08/01 10:29:13;;;;;;;5.32;3.10;;;;;;;;;;4968953;28;20065;-76
2021/08/01 10:31:54;;;;;;;5.35;3.03;;;;;;;;;;4967282;28;20114;-76
2021/08/01 10:34:40;;;;;;;5.53;3.10;;;;;;;;;;4969818;28;20034;-76
2021/08/01 10:37:07;;;;;;;5.57;3.10;;;;;;;;;;4968199;28;20042;-75
2021/08/01 10:39:33;;;;;;;2.92;2.25;;;;;;;;;;4968978;28;20062;-76
2021/08/01 10:42:01;;;;;;;4.28;2.47;;;;;;;;;;4910074;28;20102;-75
2021/08/01 10:44:26;;;;;;;4.10;2.67;;;;;;;;;;4927615;29;20066;-75
2021/08/01 10:46:52;;;;;;;4.57;3.22;;;;;;;;;;4928588;29;20079;-76
2021/08/01 10:49:18;;;;;;;6.10;4.25;;;;;;;;;;4931695;29;20023;-75
2021/08/01 10:51:43;;;;;;;7.60;5.18;;;;;;;;;;4928991;29;20049;-76
2021/08/01 10:54:21;;;;;;;5.37;2.93;;;;;;;;;;4929586;29;20059;-76
2021/08/01 10:56:46;;;;;;;5.97;3.25;;;;;;;;;;4929595;29;20326;-76
2021/08/01 10:59:44;;;;;;;5.43;3.00;;;;;;;;;;4930167;29;20031;-76
2021/08/01 11:02:30;;;;;;;4.95;3.15;;;;;;;;;;4927218;29;20039;-76
2021/08/01 11:05:35;;;;;;;6.75;3.20;;;;;;;;;;4930494;29;20034;-76
2021/08/01 11:08:20;;;;;;;3.55;2.70;;;;;;;;;;4929441;29;20059;-76
2021/08/01 11:11:08;;;;;;;6.25;3.53;;;;;;;;;;4945046;28;20046;-76
2021/08/01 11:13:54;;;;;;;6.13;3.22;;;;;;;;;;4929933;29;20493;-77
2021/08/01 11:16:39;;;;;;;5.00;3.22;;;;;;;;;;4930757;29;20290;-77
2021/08/01 11:19:32;;;;;;;6.25;4.00;;;;;;;;;;4930706;29;20030;-76
2021/08/01 11:22:36;;;;;;;9.63;3.70;;;;;;;;;;4930429;29;20038;-74
2021/08/01 11:25:25;;;;;;;5.93;3.10;;;;;;;;;;4932523;29;20051;-77
2021/08/01 11:28:12;;;;;;;;;;;;;;;;;;4932131;29;20020;-75
2021/08/01 11:30:57;;;;;;;7.80;3.70;;;;;;;;;;4937711;29;20553;-75
2021/08/01 11:33:43;;;;;;;5.28;3.72;;;;;;;;;;4933779;29;20028;-76
2021/08/01 11:36:30;;;;;;;6.63;3.30;;;;;;;;;;4935143;29;20253;-75
2021/08/01 11:39:16;;;;;;;8.10;3.92;;;;;;;;;;4933394;29;20028;-75
2021/08/01 11:42:02;;;;;;;6.65;3.97;;;;;;;;;;4939415;28;20055;-76
2021/08/01 11:45:03;;;;;;;7.13;3.90;;;;;;;;;;4940515;29;20028;-76
2021/08/01 11:47:49;;;;;;;8.05;4.05;;;;;;;;;;4933816;29;20062;-76
2021/08/01 11:50:34;;;;;;;6.03;3.90;;;;;;;;;;4932016;29;20767;-76
2021/08/01 11:56:55;;;;;;;10.90;8.25;;;;;;;;;;4906966;29;20135;-75
2021/08/01 11:59:41;;;;;;;10.75;8.00;;;;;;;;;;4919098;29;20051;-76
2021/08/01 12:02:27;;;;;;;8.55;4.20;;;;;;;;;;4915148;29;20032;-77
2021/08/01 12:05:12;;;;;;;6.38;3.78;;;;;;;;;;4911367;29;20020;-76
2021/08/01 12:07:57;;;;;;;9.95;3.78;;;;;;;;;;4926505;29;20712;-78
2021/08/01 12:10:42;;;;;;;8.95;3.72;;;;;;;;;;4912414;29;20103;-80
2021/08/01 12:13:28;;;;;;;5.45;4.10;;;;;;;;;;4909041;29;20028;-79
2021/08/01 12:16:19;;;;;;;8.00;3.80;;;;;;;;;;4913652;29;20024;-80
2021/08/01 12:19:18;;;;;;;7.22;3.58;;;;;;;;;;4917035;29;20039;-78
2021/08/01 12:22:09;;;;;;;6.40;3.60;;;;;;;;;;4911187;29;20036;-78
2021/08/01 12:24:59;;;;;;;6.03;3.95;;;;;;;;;;4923213;29;20190;-79
2021/08/01 12:27:44;;;;;;;6.18;4.40;;;;;;;;;;4910609;29;20040;-78
2021/08/01 12:30:29;;;;;;;9.55;4.00;;;;;;;;;;4914090;29;20110;-78
2021/08/01 12:33:14;;;;;;;5.63;3.42;;;;;;;;;;4915208;29;20028;-78
2021/08/01 12:36:00;;;;;;;6.28;3.50;;;;;;;;;;4914503;29;20115;-77
2021/08/01 12:38:45;;;;;;;4.03;3.20;;;;;;;;;;4922403;29;20040;-77
2021/08/01 12:41:30;;;;;;;6.05;3.47;;;;;;;;;;4914734;29;20085;-77
2021/08/01 12:44:17;;;;;;;6.30;3.40;;;;;;;;;;4914897;29;20167;-77
2021/08/01 12:47:06;;;;;;;5.22;3.05;;;;;;;;;;4913747;29;20668;-77
2021/08/01 12:49:52;;;;;;;6.57;3.20;;;;;;;;;;4917583;29;20075;-78
2021/08/01 12:52:38;;;;;;;6.60;3.25;;;;;;;;;;4917922;29;20439;-78
2021/08/01 12:55:24;;;;;;;9.43;3.40;;;;;;;;;;4932931;29;20058;-78
2021/08/01 12:58:10;;;;;;;5.35;3.30;;;;;;;;;;4936852;29;20039;-78
2021/08/01 13:00:57;;;;;;;8.32;3.60;;;;;;;;;;4940129;29;20026;-78
2021/08/01 13:03:46;;;;;;;6.18;3.70;;;;;;;;;;4934087;29;20031;-78
2021/08/01 13:06:32;;;;;;;5.38;3.50;;;;;;;;;;4930356;28;20131;-78
2021/08/01 13:09:18;;;;;;;5.72;3.25;;;;;;;;;;4942908;28;20046;-79
2021/08/01 13:12:10;;;;;;;14.10;11.13;;;;;;;;;;4944547;29;20493;-79
2021/08/01 13:14:55;;;;;;;5.50;3.55;;;;;;;;;;4926921;29;20040;-77
2021/08/01 13:17:41;;;;;;;5.95;3.63;;;;;;;;;;4939927;29;20026;-78
2021/08/01 13:20:37;;;;;;;5.45;3.30;;;;;;;;;;4932046;29;20034;-79
2021/08/01 13:23:30;;;;;;;5.00;2.97;;;;;;;;;;4930612;29;20438;-78
2021/08/01 13:26:23;;;;;;;8.55;3.17;;;;;;;;;;4932362;29;20035;-79
2021/08/01 13:29:15;;;;;;;4.78;3.00;;;;;;;;;;4931584;29;20028;-78
2021/08/01 13:32:06;;;;;;;6.45;3.35;;;;;;;;;;4930958;29;20039;-78
2021/08/01 13:34:56;;;;;;;9.05;8.10;;;;;;;;;;4934975;29;20027;-78
2021/08/01 13:37:41;;;;;;;;;;;;;;;;;;4921053;29;20142;-77
2021/08/01 13:40:31;;;;;;;20.70;17.15;;;;;;;;;;4936932;29;20372;-77
2021/08/01 13:43:18;;;;;;;5.57;3.67;;;;;;;;;;4921009;29;20059;-77
2021/08/01 13:46:16;;;;;;;8.88;5.15;;;;;;;;;;4952948;28;20039;-76
2021/08/01 13:49:01;;;;;;;11.13;6.40;;;;;;;;;;4932927;29;20035;-77
2021/08/01 13:51:46;;;;;;;16.20;7.88;;;;;;;;;;4935599;29;20109;-76
2021/08/01 13:54:31;;;;;;;9.57;4.85;;;;;;;;;;4940830;29;20038;-77
2021/08/01 13:57:16;;;;;;;6.88;4.25;;;;;;;;;;4937849;29;20521;-77
2021/08/01 14:00:03;;;;;;;10.27;7.72;;;;;;;;;;4935471;29;20127;-77
2021/08/01 14:02:49;;;;;;;16.05;12.07;;;;;;;;;;4940340;29;20036;-77
2021/08/01 14:05:34;;;;;;;9.15;5.10;;;;;;;;;;4918402;29;20062;-78
2021/08/01 14:08:19;;;;;;;10.82;3.85;;;;;;;;;;4939538;29;20336;-77
2021/08/01 14:11:04;;;;;;;4.00;3.20;;;;;;;;;;4927029;29;20027;-77
2021/08/01 14:13:50;;;;;;;9.55;5.90;;;;;;;;;;4922400;29;20058;-77
2021/08/01 14:16:35;;;;;;;50.75;29.73;;;;;;;;;;4932673;29;20027;-77
2021/08/01 14:19:20;;;;;;;45.08;25.35;;;;;;;;;;4928644;29;20036;-77
2021/08/01 14:22:06;;;;;;;32.25;17.63;;;;;;;;;;4938350;28;20119;-78
2021/08/01 14:24:51;;;;;;;18.25;9.43;;;;;;;;;;4933512;29;20050;-76
2021/08/01 14:27:36;;;;;;;9.63;4.85;;;;;;;;;;4933844;29;20065;-77
2021/08/01 14:30:22;;;;;;;3.65;1.50;;;;;;;;;;4920620;29;20056;-77
2021/08/01 14:33:08;;;;;;;2.28;1.67;;;;;;;;;;4937267;29;20043;-77
2021/08/01 14:35:54;;;;;;;3.15;1.70;;;;;;;;;;4941774;28;20043;-77
2021/08/01 14:38:39;;;;;;;2.53;1.70;;;;;;;;;;4933684;29;20041;-77
2021/08/01 14:41:24;;;;;;;3.30;1.58;;;;;;;;;;4933406;29;20028;-78
2021/08/01 14:44:10;;;;;;;2.05;1.52;;;;;;;;;;4934607;29;20075;-77
2021/08/01 14:46:56;;;;;;;2.45;1.50;;;;;;;;;;4933712;29;20047;-77
2021/08/01 14:49:47;;;;;;;3.92;2.72;;;;;;;;;;4948451;29;20035;-77
2021/08/01 14:55:58;;;;;;;2.97;1.90;;;;;;;;;;4872686;29;20140;-79
2021/08/01 14:58:45;;;;;;;2.67;1.83;;;;;;;;;;4867037;29;20384;-77
2021/08/01 15:01:35;;;;;;;1.98;1.50;;;;;;;;;;4939872;28;20395;-77
2021/08/01 15:04:41;;;;;;;1.85;1.30;;;;;;;;;;4933564;29;20362;-77
2021/08/01 15:07:33;;;;;;;2.08;1.50;;;;;;;;;;4931349;29;20038;-77
2021/08/01 15:10:21;;;;;;;1.50;1.40;;;;;;;;;;4925114;29;20038;-78
2021/08/01 15:13:13;;;;;;;3.65;1.60;;;;;;;;;;4929734;29;20042;-79
2021/08/01 15:16:00;;;;;;;1.58;1.40;;;;;;;;;;4933928;29;20035;-77
2021/08/01 15:18:46;;;;;;;7.45;4.10;;;;;;;;;;4927040;29;20047;-77
2021/08/01 15:21:38;;;;;;;4.32;2.22;;;;;;;;;;4926635;29;20430;-77
2021/08/01 15:24:36;;;;;;;5.05;1.67;;;;;;;;;;4934522;29;20134;-77
2021/08/01 15:27:23;;;;;;;1.73;1.38;;;;;;;;;;4924468;29;20032;-77
2021/08/01 15:30:09;;;;;;;1.58;0.90;;;;;;;;;;4927249;29;20039;-77
2021/08/01 15:32:55;;;;;;;3.60;1.70;;;;;;;;;;4930935;29;20023;-77
2021/08/01 15:35:44;;;;;;;3.10;1.85;;;;;;;;;;4930701;29;20035;-77
2021/08/01 15:38:29;;;;;;;1.83;1.50;;;;;;;;;;4925281;29;20091;-77
2021/08/01 15:41:15;;;;;;;3.95;1.60;;;;;;;;;;4928409;29;20260;-77
2021/08/01 15:44:01;;;;;;;4.43;1.63;;;;;;;;;;4928471;29;20063;-78
2021/08/01 15:46:47;;;;;;;2.42;1.27;;;;;;;;;;4931331;29;20045;-79
2021/08/01 15:49:32;;;;;;;1.67;1.20;;;;;;;;;;4924548;29;20028;-78
2021/08/01 15:52:50;;;;;;;2.05;1.38;;;;;;;;;;4931957;29;20050;-77
2021/08/01 15:55:38;;;;;;;2.45;1.35;;;;;;;;;;4888463;29;20593;-78
2021/08/01 15:58:23;;;;;;;2.45;1.40;;;;;;;;;;4917418;29;20026;-78
2021/08/01 16:01:16;;;;;;;3.13;1.25;;;;;;;;;;4919501;29;20027;-78
2021/08/01 16:04:05;;;;;;;3.15;2.15;;;;;;;;;;4925654;29;20118;-76
2021/08/01 16:06:52;;;;;;;2.05;1.60;;;;;;;;;;4920474;29;20143;-76
2021/08/01 16:09:47;;;;;;;2.15;1.63;;;;;;;;;;4929350;29;20067;-76
2021/08/01 16:12:36;;;;;;;3.55;2.00;;;;;;;;;;4928084;29;20020;-76
2021/08/01 16:15:21;;;;;;;2.20;1.80;;;;;;;;;;4928730;29;20019;-76
2021/08/01 16:18:07;;;;;;;3.35;2.20;;;;;;;;;;4933405;29;20035;-77
2021/08/01 16:20:52;;;;;;;3.58;1.73;;;;;;;;;;4928155;29;20062;-76
2021/08/01 16:23:38;;;;;;;5.80;2.42;;;;;;;;;;4927080;29;20024;-76
2021/08/01 16:26:27;;;;;;;3.28;1.90;;;;;;;;;;4926538;29;20451;-77
2021/08/01 16:29:13;;;;;;;4.75;2.70;;;;;;;;;;4929706;29;20060;-76
2021/08/01 16:31:59;;;;;;;10.30;3.83;;;;;;;;;;4935365;29;20194;-76
2021/08/01 16:34:48;;;;;;;5.15;2.40;;;;;;;;;;4925253;29;20032;-76
2021/08/01 16:37:33;;;;;;;13.57;4.00;;;;;;;;;;4931801;29;20031;-77
2021/08/01 16:40:19;;;;;;;7.90;2.50;;;;;;;;;;4935353;29;20217;-76
2021/08/01 16:43:16;;;;;;;8.10;2.72;;;;;;;;;;4930280;29;20050;-75
2021/08/01 16:46:02;;;;;;;10.10;3.92;;;;;;;;;;4925554;29;20538;-76
2021/08/01 16:49:05;;;;;;;8.05;2.97;;;;;;;;;;4944882;29;20116;-76
2021/08/01 16:52:09;;;;;;;6.40;2.83;;;;;;;;;;4941375;29;20040;-75
2021/08/01 16:55:13;;;;;;;18.27;4.95;;;;;;;;;;4944944;29;20797;-76
2021/08/01 16:58:03;;;;;;;4.50;1.77;;;;;;;;;;4935258;29;20442;-76
2021/08/01 17:00:56;;;;;;;8.35;2.55;;;;;;;;;;4937061;29;20517;-76
2021/08/01 17:03:51;;;;;;;6.35;2.13;;;;;;;;;;4927467;29;20042;-76
2021/08/01 17:06:43;;;;;;;5.05;1.90;;;;;;;;;;4934473;29;20043;-77
2021/08/01 17:09:29;;;;;;;6.85;4.45;;;;;;;;;;4946239;29;20031;-78
2021/08/01 17:12:15;;;;;;;7.88;3.15;;;;;;;;;;4930439;29;20043;-77
2021/08/01 17:15:01;;;;;;;6.47;3.38;;;;;;;;;;4944165;29;20031;-77
2021/08/01 17:17:46;;;;;;;4.22;1.80;;;;;;;;;;4932059;29;20478;-76